createdAt,value
2022-11-15T00:01:44.067Z,99868.53
2022-11-15T00:04:29.514Z,99908.94
2022-11-15T00:07:33.227Z,99821.88
2022-11-15T00:10:19.932Z,99757.63
2022-11-15T00:13:09.497Z,99859.41
2022-11-15T00:15:58.561Z,99896.94
2022-11-15T00:18:49.277Z,99806.53
2022-11-15T00:21:35.917Z,99793.88
2022-11-15T00:24:21.037Z,99784.72
2022-11-15T00:27:08.101Z,99808.63
2022-11-15T00:29:54.367Z,99794.41
2022-11-15T00:32:39.456Z,99795.28
2022-11-15T00:35:24.802Z,99855.81
2022-11-15T00:38:11.789Z,99872.31
2022-11-15T00:40:57.141Z,99840.53
2022-11-15T00:43:44.448Z,99624.03
2022-11-15T00:46:29.648Z,99817.34
2022-11-15T00:49:14.939Z,99804.31
2022-11-15T00:52:00.495Z,99804.56
2022-11-15T00:54:45.847Z,99701.50
2022-11-15T00:57:30.994Z,99760.94
2022-11-15T01:00:17.033Z,99737.31
2022-11-15T01:03:02.622Z,99755.75
2022-11-15T01:05:48.214Z,99729.34
2022-11-15T01:08:34.434Z,99834.13
2022-11-15T01:11:22.898Z,99713.75
2022-11-15T01:14:08.168Z,99784.41
2022-11-15T01:16:53.361Z,99767.56
2022-11-15T01:19:38.471Z,99741.53
2022-11-15T01:22:23.517Z,99799.63
2022-11-15T01:25:08.729Z,99772.69
2022-11-15T01:27:53.858Z,99792.63
2022-11-15T01:30:39.414Z,99719.41
2022-11-15T01:33:24.514Z,99708.59
2022-11-15T01:36:13.883Z,99695.94
2022-11-15T01:39:00.051Z,99779.53
2022-11-15T01:41:45.182Z,99679.44
2022-11-15T01:44:41.369Z,99682.41
2022-11-15T01:47:34.415Z,99762.31
2022-11-15T01:50:29.800Z,99804.50
2022-11-15T01:53:16.798Z,99776.53
2022-11-15T01:56:06.987Z,99674.50
2022-11-15T01:58:56.274Z,99717.44
2022-11-15T02:01:41.915Z,99559.09
2022-11-15T02:04:30.442Z,99756.78
2022-11-15T02:07:21.045Z,99705.63
2022-11-15T02:10:18.817Z,99762.34
2022-11-15T02:13:04.746Z,99658.59
2022-11-15T02:16:13.317Z,99738.34
2022-11-15T02:19:10.348Z,99731.81
2022-11-15T02:22:33.448Z,99729.28
2022-11-15T02:25:47.807Z,99719.09
2022-11-15T02:29:00.227Z,99715.00
2022-11-15T02:32:04.063Z,99729.50
2022-11-15T02:35:02.097Z,99695.91
2022-11-15T02:37:59.584Z,99607.72
2022-11-15T02:41:02.691Z,99722.00
2022-11-15T02:43:57.725Z,99716.28
2022-11-15T02:47:07.926Z,99716.97
2022-11-15T02:50:02.045Z,99643.56
2022-11-15T02:52:49.499Z,99687.69
2022-11-15T02:55:37.554Z,99700.06
2022-11-15T02:58:49.682Z,99675.75
2022-11-15T03:01:59.078Z,99462.44
2022-11-15T03:05:05.706Z,99699.88
2022-11-15T03:08:35.333Z,99688.34
2022-11-15T03:11:22.773Z,99689.38
2022-11-15T03:14:14.383Z,99692.56
2022-11-15T03:17:12.119Z,99665.81
2022-11-15T03:20:02.333Z,99670.28
2022-11-15T03:22:50.427Z,99676.31
2022-11-15T03:25:41.502Z,99581.41
2022-11-15T03:28:29.261Z,99684.44
2022-11-15T03:31:36.686Z,99677.91
2022-11-15T03:34:39.046Z,99460.91
2022-11-15T03:37:30.823Z,99674.56
2022-11-15T03:40:18.159Z,99601.31
2022-11-15T03:43:08.036Z,99662.41
2022-11-15T03:46:15.657Z,99509.19
2022-11-15T03:49:13.542Z,99609.09
2022-11-15T03:51:59.817Z,99613.03
2022-11-15T03:54:50.630Z,99587.47
2022-11-15T03:57:36.137Z,99583.28
2022-11-15T04:00:21.334Z,99371.81
2022-11-15T04:03:06.761Z,99617.34
2022-11-15T04:05:52.349Z,99422.69
2022-11-15T04:08:37.458Z,99512.69
2022-11-15T04:11:22.985Z,99589.94
2022-11-15T04:14:08.217Z,99468.59
2022-11-15T04:16:53.330Z,99433.84
2022-11-15T04:19:57.171Z,99584.25
2022-11-15T04:23:00.880Z,99612.06
2022-11-15T04:25:47.661Z,99528.38
2022-11-15T04:28:33.048Z,99485.75
2022-11-15T04:31:18.026Z,99534.22
2022-11-15T04:34:03.707Z,99558.47
2022-11-15T04:37:07.629Z,99582.63
2022-11-15T04:39:53.192Z,99509.84
2022-11-15T04:42:38.278Z,99480.25
2022-11-15T04:45:23.921Z,99503.31
2022-11-15T04:48:09.399Z,99492.56
2022-11-15T04:50:54.639Z,99494.81
2022-11-15T04:53:40.192Z,99462.84
2022-11-15T04:56:25.089Z,99494.50
2022-11-15T04:59:10.714Z,99488.16
2022-11-15T05:01:55.587Z,99467.00
2022-11-15T05:04:40.987Z,99423.88
2022-11-15T05:07:26.630Z,99508.88
2022-11-15T05:10:12.100Z,99523.66
2022-11-15T05:12:57.520Z,99525.56
2022-11-15T05:15:42.782Z,99370.22
2022-11-15T05:18:28.141Z,99485.66
2022-11-15T05:21:15.941Z,99477.44
2022-11-15T05:24:01.942Z,99351.28
2022-11-15T05:26:47.431Z,99415.13
2022-11-15T05:29:32.606Z,99393.34
2022-11-15T05:32:18.863Z,99402.75
2022-11-15T05:35:07.984Z,99477.63
2022-11-15T05:37:53.318Z,99431.91
2022-11-15T05:40:39.078Z,99376.25
2022-11-15T05:43:25.098Z,99378.97
2022-11-15T05:46:10.998Z,99405.53
2022-11-15T05:48:57.779Z,99402.72
2022-11-15T05:51:47.461Z,99383.81
2022-11-15T05:54:33.782Z,99461.31
2022-11-15T05:57:19.366Z,99468.91
2022-11-15T06:00:05.891Z,99470.66
2022-11-15T06:02:50.869Z,99379.44
2022-11-15T06:05:35.964Z,99383.72
2022-11-15T06:08:21.137Z,99468.44
2022-11-15T06:11:07.821Z,99120.16
2022-11-15T06:13:53.288Z,99362.88
2022-11-15T06:16:38.631Z,99334.59
2022-11-15T06:19:23.588Z,99427.44
2022-11-15T06:22:10.446Z,99402.59
2022-11-15T06:24:58.268Z,99385.03
2022-11-15T06:27:52.367Z,99373.78
2022-11-15T06:30:37.482Z,99372.16
2022-11-15T06:33:22.553Z,99331.03
2022-11-15T06:36:17.091Z,99425.13
2022-11-15T06:39:06.896Z,99405.53
2022-11-15T06:41:52.463Z,99264.59
2022-11-15T06:44:37.667Z,99395.00
2022-11-15T06:47:22.800Z,99363.16
2022-11-15T06:50:08.506Z,99333.22
2022-11-15T06:52:53.693Z,99346.38
2022-11-15T06:55:38.799Z,99321.88
2022-11-15T06:58:24.421Z,99360.91
2022-11-15T07:01:12.679Z,99340.31
2022-11-15T07:03:58.017Z,99286.53
2022-11-15T07:06:43.468Z,99283.50
2022-11-15T07:09:28.751Z,99348.19
2022-11-15T07:12:14.026Z,99350.31
2022-11-15T07:14:59.016Z,99276.78
2022-11-15T07:17:44.524Z,99346.03
2022-11-15T07:20:29.471Z,99285.72
2022-11-15T07:23:14.543Z,99309.75
2022-11-15T07:26:00.845Z,99317.84
2022-11-15T07:28:46.283Z,99235.41
2022-11-15T07:31:31.789Z,99325.06
2022-11-15T07:34:16.882Z,99273.19
2022-11-15T07:37:02.444Z,99326.31
2022-11-15T07:39:47.571Z,99315.81
2022-11-15T07:42:51.495Z,99315.91
2022-11-15T07:45:43.761Z,99362.59
2022-11-15T07:48:42.205Z,99304.53
2022-11-15T07:51:28.394Z,99342.34
2022-11-15T07:54:13.733Z,99244.63
2022-11-15T07:57:02.565Z,99250.13
2022-11-15T07:59:52.216Z,99291.22
2022-11-15T08:02:37.334Z,99312.72
2022-11-15T08:05:22.736Z,99221.75
2022-11-15T08:08:09.331Z,99265.69
2022-11-15T08:10:54.833Z,99186.25
2022-11-15T08:13:40.288Z,99261.34
2022-11-15T08:16:25.640Z,99285.41
2022-11-15T08:19:10.717Z,99302.19
2022-11-15T08:21:56.299Z,99323.66
2022-11-15T08:24:41.555Z,99276.31
2022-11-15T08:27:26.649Z,99172.66
2022-11-15T08:30:13.066Z,99066.63
2022-11-15T08:32:59.943Z,99253.75
2022-11-15T08:35:45.451Z,99274.00
2022-11-15T08:38:31.695Z,99178.13
2022-11-15T08:41:29.203Z,99267.81
2022-11-15T08:44:14.339Z,99241.84
2022-11-15T08:46:59.809Z,99180.47
2022-11-15T08:49:45.248Z,99154.75
2022-11-15T08:52:30.828Z,99257.78
2022-11-15T08:55:17.736Z,99157.84
2022-11-15T08:58:03.240Z,99243.84
2022-11-15T09:00:48.577Z,99171.72
2022-11-15T09:03:33.779Z,99254.72
2022-11-15T09:06:19.291Z,99161.28
2022-11-15T09:09:04.910Z,99191.84
2022-11-15T09:11:51.733Z,99036.19
2022-11-15T09:14:37.618Z,99180.44
2022-11-15T09:17:24.926Z,99223.84
2022-11-15T09:20:11.172Z,99140.16
2022-11-15T09:23:00.794Z,99165.09
2022-11-15T09:25:46.428Z,99134.25
2022-11-15T09:28:33.958Z,99194.13
2022-11-15T09:31:22.178Z,99202.41
2022-11-15T09:34:07.860Z,99144.41
2022-11-15T09:36:53.203Z,99103.94
2022-11-15T09:39:38.957Z,99198.47
2022-11-15T09:42:56.435Z,99185.81
2022-11-15T09:45:51.398Z,98882.66
2022-11-15T09:48:58.926Z,99101.84
2022-11-15T09:51:47.683Z,99185.69
2022-11-15T09:54:53.978Z,99178.69
2022-11-15T09:58:01.743Z,99046.94
2022-11-15T10:00:46.533Z,99195.13
2022-11-15T10:03:16.193Z,99159.16
2022-11-15T10:05:46.579Z,99174.63
2022-11-15T10:08:28.844Z,99160.97
2022-11-15T10:11:35.517Z,99108.25
2022-11-15T10:13:53.662Z,99145.63
2022-11-15T10:16:48.121Z,99145.44
2022-11-15T10:19:25.230Z,99123.06
2022-11-15T10:22:14.976Z,99132.44
2022-11-15T10:24:45.233Z,99052.22
2022-11-15T10:27:13.553Z,99123.66
2022-11-15T10:29:51.190Z,99047.84
2022-11-15T10:32:19.999Z,99100.03
2022-11-15T10:34:48.064Z,99052.78
2022-11-15T10:37:14.976Z,98840.50
2022-11-15T10:39:41.828Z,99035.06
2022-11-15T10:42:29.317Z,99009.53
2022-11-15T10:44:56.174Z,99106.38
2022-11-15T10:47:29.191Z,99101.44
2022-11-15T10:50:05.501Z,99038.25
2022-11-15T10:52:35.907Z,99104.88
2022-11-15T10:55:17.786Z,99089.53
2022-11-15T10:57:51.506Z,99080.25
2022-11-15T11:00:21.070Z,99079.88
2022-11-15T11:02:56.540Z,99065.31
2022-11-15T11:05:38.142Z,99061.56
2022-11-15T11:08:11.247Z,99060.03
2022-11-15T11:10:51.770Z,99042.66
2022-11-15T11:13:31.448Z,98897.00
2022-11-15T11:16:01.101Z,99051.63
2022-11-15T11:18:53.166Z,98996.41
2022-11-15T11:21:55.195Z,99015.16
2022-11-15T11:24:45.056Z,99034.75
2022-11-15T11:27:31.542Z,98934.72
2022-11-15T11:30:33.055Z,99029.31
2022-11-15T11:33:17.185Z,99033.81
2022-11-15T11:36:04.431Z,99057.25
2022-11-15T11:38:59.162Z,99019.47
2022-11-15T11:41:54.210Z,99040.56
2022-11-15T11:44:26.482Z,99024.38
2022-11-15T11:46:55.988Z,99016.84
2022-11-15T11:49:29.370Z,98878.91
2022-11-15T11:52:09.027Z,98871.34
2022-11-15T11:54:47.988Z,98968.47
2022-11-15T11:57:28.102Z,98995.59
2022-11-15T12:00:03.351Z,98882.34
2022-11-15T12:02:44.409Z,98980.06
2022-11-15T12:05:18.975Z,98967.31
2022-11-15T12:07:47.984Z,98915.75
2022-11-15T12:10:30.274Z,98983.84
2022-11-15T12:13:05.529Z,98983.34
2022-11-15T12:15:46.591Z,98960.09
2022-11-15T12:18:16.371Z,98912.00
2022-11-15T12:20:54.271Z,98969.81
2022-11-15T12:23:27.601Z,98898.81
2022-11-15T12:26:00.600Z,98872.44
2022-11-15T12:29:06.365Z,98946.34
2022-11-15T12:31:45.772Z,98957.28
2022-11-15T12:34:21.563Z,98953.94
2022-11-15T12:36:52.002Z,98873.25
2022-11-15T12:39:19.082Z,98951.81
2022-11-15T12:42:06.054Z,98948.94
2022-11-15T12:44:32.639Z,98945.44
2022-11-15T12:46:59.271Z,98934.41
2022-11-15T12:49:28.995Z,98941.75
2022-11-15T12:51:58.582Z,98941.06
2022-11-15T12:54:25.378Z,98933.97
2022-11-15T12:57:04.330Z,98925.47
2022-11-15T12:59:56.039Z,98866.03
2022-11-15T13:02:25.694Z,98894.31
2022-11-15T13:04:54.774Z,98860.13
2022-11-15T13:07:36.664Z,98918.44
2022-11-15T13:10:27.922Z,98896.94
2022-11-15T13:12:57.008Z,98912.69
2022-11-15T13:15:53.904Z,98939.84
2022-11-15T13:18:38.735Z,98703.00
2022-11-15T13:21:39.486Z,98889.91
2022-11-15T13:24:13.406Z,98925.47
2022-11-15T13:26:43.180Z,98879.66
2022-11-15T13:29:18.053Z,98864.75
2022-11-15T13:31:45.728Z,98883.84
2022-11-15T13:34:49.485Z,98912.00
2022-11-15T13:37:29.711Z,98893.19
2022-11-15T13:40:24.732Z,98823.81
2022-11-15T13:42:52.269Z,98907.25
2022-11-15T13:45:20.371Z,98864.66
2022-11-15T13:47:53.036Z,98839.25
2022-11-15T13:50:22.888Z,98879.47
2022-11-15T13:52:49.968Z,98900.59
2022-11-15T13:55:20.501Z,98901.59
2022-11-15T13:57:52.420Z,98828.44
2022-11-15T14:00:36.090Z,98861.63
2022-11-15T14:03:22.107Z,98837.75
2022-11-15T14:06:13.279Z,98920.88
2022-11-15T14:08:42.024Z,98839.94
2022-11-15T14:11:09.030Z,98897.09
2022-11-15T14:13:36.220Z,98893.75
2022-11-15T14:16:33.165Z,98841.34
2022-11-15T14:19:00.022Z,98814.13
2022-11-15T14:21:26.793Z,98887.56
2022-11-15T14:23:53.438Z,98803.69
2022-11-15T14:26:34.785Z,98827.19
2022-11-15T14:29:27.376Z,98876.34
2022-11-15T14:31:55.584Z,98800.66
2022-11-15T14:34:23.304Z,98784.03
2022-11-15T14:36:50.013Z,98826.66
2022-11-15T14:39:17.052Z,98833.59
2022-11-15T14:41:44.591Z,98787.50
2022-11-15T14:44:12.180Z,98847.13
2022-11-15T14:46:38.818Z,98776.78
2022-11-15T14:49:05.902Z,98865.00
2022-11-15T14:51:33.932Z,98792.00
2022-11-15T14:54:00.971Z,98724.44
2022-11-15T14:56:27.804Z,98792.66
2022-11-15T14:58:56.268Z,98797.88
2022-11-15T15:01:26.213Z,98792.88
2022-11-15T15:03:57.896Z,98844.41
2022-11-15T15:06:25.219Z,98837.75
2022-11-15T15:08:52.167Z,98791.06
2022-11-15T15:11:24.365Z,98816.16
2022-11-15T15:13:51.850Z,98740.03
2022-11-15T15:16:18.847Z,98782.78
2022-11-15T15:18:45.459Z,98812.28
2022-11-15T15:21:24.039Z,98754.47
2022-11-15T15:23:51.470Z,98821.34
2022-11-15T15:26:18.630Z,98811.28
2022-11-15T15:28:45.393Z,98745.88
2022-11-15T15:31:12.382Z,98768.31
2022-11-15T15:33:39.033Z,98798.56
2022-11-15T15:36:06.098Z,98657.19
2022-11-15T15:38:33.325Z,98826.66
2022-11-15T15:41:02.931Z,98828.56
2022-11-15T15:43:29.778Z,98797.66
2022-11-15T15:45:56.406Z,98737.28
2022-11-15T15:48:23.137Z,98838.97
2022-11-15T15:50:50.303Z,98822.84
2022-11-15T15:53:18.299Z,98822.28
2022-11-15T15:55:45.093Z,98795.22
2022-11-15T15:58:11.834Z,98743.28
2022-11-15T16:00:39.006Z,98793.44
2022-11-15T16:03:05.686Z,98693.34
2022-11-15T16:05:32.644Z,98753.59
2022-11-15T16:07:59.685Z,98689.50
2022-11-15T16:10:30.243Z,98745.53
2022-11-15T16:12:58.622Z,98751.19
2022-11-15T16:15:28.028Z,98784.38
2022-11-15T16:17:57.011Z,98761.06
2022-11-15T16:20:40.550Z,98785.63
2022-11-15T16:23:10.695Z,98722.97
2022-11-15T16:25:49.512Z,98717.84
2022-11-15T16:28:31.667Z,98712.22
2022-11-15T16:31:10.137Z,98694.34
2022-11-15T16:33:37.708Z,98726.75
2022-11-15T16:36:19.219Z,98773.47
2022-11-15T16:38:46.048Z,98733.56
2022-11-15T16:41:12.742Z,98707.47
2022-11-15T16:43:39.590Z,98767.66
2022-11-15T16:46:21.659Z,98632.84
2022-11-15T16:48:49.288Z,98792.94
2022-11-15T16:51:18.784Z,98772.56
2022-11-15T16:53:51.342Z,98753.25
2022-11-15T16:56:23.941Z,98775.13
2022-11-15T16:58:50.912Z,98755.19
2022-11-15T17:01:21.269Z,98793.91
2022-11-15T17:03:48.110Z,98677.81
2022-11-15T17:06:15.500Z,98778.53
2022-11-15T17:08:42.481Z,98735.94
2022-11-15T17:11:09.783Z,98682.94
2022-11-15T17:13:36.558Z,98694.06
2022-11-15T17:16:08.768Z,98795.75
2022-11-15T17:18:36.388Z,98774.63
2022-11-15T17:21:14.162Z,98479.75
2022-11-15T17:23:41.319Z,98608.28
2022-11-15T17:26:29.027Z,98764.56
2022-11-15T17:28:57.134Z,98698.47
2022-11-15T17:31:25.401Z,98726.16
2022-11-15T17:33:52.270Z,98754.34
2022-11-15T17:36:19.319Z,98670.44
2022-11-15T17:38:50.410Z,98724.97
2022-11-15T17:41:17.215Z,98700.81
2022-11-15T17:43:44.313Z,98682.94
2022-11-15T17:46:14.899Z,98745.38
2022-11-15T17:48:42.011Z,98693.75
2022-11-15T17:51:11.769Z,98749.53
2022-11-15T17:53:44.023Z,98691.19
2022-11-15T17:56:16.363Z,98721.75
2022-11-15T17:59:00.764Z,98718.66
2022-11-15T18:01:30.057Z,98753.72
2022-11-15T18:04:00.109Z,98757.50
2022-11-15T18:06:30.456Z,98654.84
2022-11-15T18:08:57.296Z,98756.81
2022-11-15T18:11:26.833Z,98734.13
2022-11-15T18:13:56.994Z,98681.81
2022-11-15T18:16:26.100Z,98752.19
2022-11-15T18:18:55.915Z,98748.41
2022-11-15T18:21:30.831Z,98555.47
2022-11-15T18:24:00.049Z,98699.22
2022-11-15T18:26:28.513Z,98740.53
2022-11-15T18:28:57.299Z,98715.81
2022-11-15T18:31:27.196Z,98588.78
2022-11-15T18:33:54.391Z,98748.91
2022-11-15T18:36:23.963Z,98707.75
2022-11-15T18:39:05.056Z,98729.75
2022-11-15T18:41:35.063Z,98638.19
2022-11-15T18:44:05.493Z,98713.84
2022-11-15T18:46:32.238Z,98730.25
2022-11-15T18:49:01.372Z,98698.22
2022-11-15T18:51:30.289Z,98535.19
2022-11-15T18:53:59.972Z,98642.75
2022-11-15T18:56:28.351Z,98730.72
2022-11-15T18:58:57.549Z,98713.28
2022-11-15T19:01:32.622Z,98720.16
2022-11-15T19:04:04.525Z,98658.09
2022-11-15T19:06:31.426Z,98610.38
2022-11-15T19:08:59.406Z,98737.13
2022-11-15T19:11:35.769Z,98688.00
2022-11-15T19:14:10.868Z,98676.72
2022-11-15T19:16:40.031Z,98715.41
2022-11-15T19:19:12.054Z,98743.13
2022-11-15T19:21:39.336Z,98735.22
2022-11-15T19:24:06.778Z,98652.22
2022-11-15T19:26:33.582Z,98652.25
2022-11-15T19:29:01.888Z,98735.56
2022-11-15T19:31:31.715Z,98734.19
2022-11-15T19:34:00.169Z,98653.72
2022-11-15T19:36:32.802Z,98671.22
2022-11-15T19:39:05.690Z,98650.03
2022-11-15T19:41:52.137Z,98732.53
2022-11-15T19:44:19.717Z,98708.69
2022-11-15T19:46:46.496Z,98582.06
2022-11-15T19:49:13.440Z,98679.63
2022-11-15T19:51:42.680Z,98647.09
2022-11-15T19:54:10.589Z,98679.53
2022-11-15T19:56:37.901Z,98663.69
2022-11-15T19:59:05.311Z,98690.25
2022-11-15T20:01:36.327Z,98705.28
2022-11-15T20:04:03.405Z,98545.22
2022-11-15T20:06:39.790Z,98688.97
2022-11-15T20:09:06.579Z,98620.22
2022-11-15T20:11:34.345Z,98721.06
2022-11-15T20:14:04.999Z,98720.88
2022-11-15T20:16:31.830Z,98712.13
2022-11-15T20:18:58.652Z,98667.22
2022-11-15T20:21:25.377Z,98641.53
2022-11-15T20:23:52.625Z,98602.75
2022-11-15T20:26:20.510Z,98706.22
2022-11-15T20:28:48.251Z,98717.47
2022-11-15T20:31:26.353Z,98707.03
2022-11-15T20:33:53.011Z,98651.28
2022-11-15T20:36:19.739Z,98730.78
2022-11-15T20:38:46.462Z,98709.50
2022-11-15T20:41:14.540Z,98699.75
2022-11-15T20:43:43.561Z,98656.34
2022-11-15T20:46:12.172Z,98562.56
2022-11-15T20:48:39.108Z,98646.41
2022-11-15T20:51:11.355Z,98733.75
2022-11-15T20:53:41.853Z,98558.00
2022-11-15T20:56:13.988Z,98696.09
2022-11-15T20:58:42.266Z,98660.31
2022-11-15T21:01:11.922Z,98698.59
2022-11-15T21:03:38.721Z,98686.28
2022-11-15T21:06:05.816Z,98702.59
2022-11-15T21:08:54.291Z,98648.88
2022-11-15T21:11:39.827Z,98704.94
2022-11-15T21:14:09.507Z,98696.47
2022-11-15T21:16:37.401Z,98625.13
2022-11-15T21:19:05.717Z,98533.59
2022-11-15T21:21:32.609Z,98578.06
2022-11-15T21:23:59.313Z,98665.84
2022-11-15T21:26:26.804Z,98565.75
2022-11-15T21:28:53.644Z,98597.22
2022-11-15T21:31:20.446Z,98576.03
2022-11-15T21:33:47.181Z,98603.22
2022-11-15T21:36:14.313Z,98592.59
2022-11-15T21:38:41.224Z,98685.13
2022-11-15T21:41:08.045Z,98628.91
2022-11-15T21:43:34.804Z,98620.44
2022-11-15T21:46:04.029Z,98682.06
2022-11-15T21:48:33.110Z,98623.66
2022-11-15T21:51:08.225Z,98688.22
2022-11-15T21:53:35.283Z,98477.53
2022-11-15T21:56:03.234Z,98679.38
2022-11-15T21:58:31.238Z,98670.44
2022-11-15T22:01:17.345Z,98578.25
2022-11-15T22:03:44.246Z,98630.75
2022-11-15T22:06:17.210Z,98632.22
2022-11-15T22:08:46.176Z,98576.88
2022-11-15T22:11:13.601Z,98631.03
2022-11-15T22:13:40.329Z,98575.22
2022-11-15T22:16:08.692Z,98692.97
2022-11-15T22:18:36.606Z,98687.31
2022-11-15T22:21:06.167Z,98566.19
2022-11-15T22:23:33.934Z,98655.09
2022-11-15T22:26:01.384Z,98645.41
2022-11-15T22:28:28.354Z,98575.88
2022-11-15T22:30:55.472Z,98630.00
2022-11-15T22:33:24.649Z,98531.41
2022-11-15T22:35:51.624Z,98660.25
2022-11-15T22:38:18.692Z,98600.63
2022-11-15T22:40:46.823Z,98589.50
2022-11-15T22:43:15.827Z,98676.56
2022-11-15T22:45:51.492Z,98668.44
2022-11-15T22:48:20.715Z,98697.00
2022-11-15T22:50:47.691Z,98673.28
2022-11-15T22:53:14.444Z,98528.56
2022-11-15T22:55:41.913Z,98604.41
2022-11-15T22:58:09.132Z,98656.19
2022-11-15T23:00:37.362Z,98652.75
2022-11-15T23:03:04.401Z,98411.78
2022-11-15T23:05:31.245Z,98586.34
2022-11-15T23:07:58.014Z,98534.72
2022-11-15T23:10:43.547Z,98584.34
2022-11-15T23:13:16.224Z,98643.47
2022-11-15T23:16:07.440Z,98600.16
2022-11-15T23:18:36.144Z,98591.25
2022-11-15T23:21:17.883Z,98513.63
2022-11-15T23:23:44.629Z,98544.41
2022-11-15T23:26:12.069Z,98658.91
2022-11-15T23:28:38.846Z,98590.41
2022-11-15T23:31:25.650Z,98644.38
2022-11-15T23:33:58.823Z,98614.50
2022-11-15T23:36:27.246Z,98662.16
2022-11-15T23:38:54.469Z,98597.59
2022-11-15T23:41:23.811Z,98627.41
2022-11-15T23:43:51.441Z,98433.13
2022-11-15T23:46:18.737Z,98558.53
2022-11-15T23:48:45.526Z,98638.28
2022-11-15T23:51:12.367Z,98591.31
2022-11-15T23:53:39.418Z,98578.81
2022-11-15T23:56:10.504Z,98614.72
2022-11-15T23:58:37.734Z,98521.28
